Time;durP1;ratioP1;P1;durP2;ratioP2;P2;SDS_P1;SDS_P2;PMS_P1;PMS_P2;Temp;Humidity;BMP_temperature;BMP_pressure;BME280_temperature;BME280_humidity;BME280_pressure;Samples;Min_cycle;Max_cycle;Signal;HPM_P1;HPM_P2
2022/08/21 00:02:26;;;;;;;4.38;1.60;;;;;;;17.48;100.00;100765.03;5187874;28;20026;-77
2022/08/21 00:04:56;;;;;;;4.75;1.50;;;;;;;17.57;100.00;100762.69;5184182;28;20038;-75
2022/08/21 00:07:26;;;;;;;7.50;1.90;;;;;;;17.58;100.00;100756.47;5189636;28;20025;-77
2022/08/21 00:09:57;;;;;;;5.78;1.73;;;;;;;17.64;100.00;100757.88;5192289;28;20018;-76
2022/08/21 00:12:28;;;;;;;6.25;1.70;;;;;;;17.60;100.00;100756.34;5191215;28;20053;-75
2022/08/21 00:14:58;;;;;;;5.07;1.48;;;;;;;17.56;100.00;100754.84;5192845;28;20060;-76
2022/08/21 00:17:29;;;;;;;7.18;1.60;;;;;;;17.29;100.00;100751.22;5185652;28;20093;-75
2022/08/21 00:19:59;;;;;;;7.05;1.40;;;;;;;17.17;100.00;100752.78;5185730;28;20021;-75
2022/08/21 00:22:29;;;;;;;5.32;1.40;;;;;;;17.14;100.00;100752.13;5192351;28;20053;-77
2022/08/21 00:25:00;;;;;;;4.75;1.50;;;;;;;17.16;100.00;100744.97;5175006;28;20029;-76
2022/08/21 00:27:30;;;;;;;4.93;1.30;;;;;;;17.15;100.00;100751.19;5180883;28;20034;-78
2022/08/21 00:30:01;;;;;;;3.97;1.33;;;;;;;17.25;100.00;100761.09;5190248;28;20120;-76
2022/08/21 00:32:33;;;;;;;5.13;1.58;;;;;;;17.03;100.00;100757.19;5186577;28;20018;-75
2022/08/21 00:35:06;;;;;;;6.28;1.60;;;;;;;16.90;100.00;100750.91;5192813;28;20401;-75
2022/08/21 00:37:37;;;;;;;8.68;1.70;;;;;;;16.69;100.00;100752.16;5191314;28;20048;-78
2022/08/21 00:40:12;;;;;;;7.00;1.30;;;;;;;16.61;100.00;100756.19;5207100;22;20487;-73
2022/08/21 00:42:43;;;;;;;5.30;1.35;;;;;;;16.58;100.00;100749.28;5181118;28;20044;-73
2022/08/21 00:45:14;;;;;;;3.25;1.20;;;;;;;16.80;100.00;100755.06;5182213;28;20034;-73
2022/08/21 00:47:44;;;;;;;5.18;1.60;;;;;;;16.72;100.00;100751.97;5182342;28;20104;-73
2022/08/21 00:50:14;;;;;;;4.82;1.58;;;;;;;16.54;100.00;100749.56;5186021;28;20095;-73
2022/08/21 00:52:45;;;;;;;3.85;1.33;;;;;;;16.51;100.00;100747.06;5193824;28;20018;-73
2022/08/21 00:55:16;;;;;;;6.13;1.30;;;;;;;16.58;100.00;100751.91;5189379;28;20037;-73
2022/08/21 00:57:51;;;;;;;3.72;1.35;;;;;;;16.51;100.00;100749.72;5193878;28;20078;-73
2022/08/21 01:00:28;;;;;;;6.95;1.70;;;;;;;16.48;100.00;100745.50;5185828;28;20056;-73
2022/08/21 01:03:00;;;;;;;6.95;1.75;;;;;;;16.51;100.00;100745.31;5184861;28;20108;-73
2022/08/21 01:05:31;;;;;;;4.82;1.50;;;;;;;16.41;100.00;100752.03;5182319;28;20033;-73
2022/08/21 01:08:03;;;;;;;3.17;1.40;;;;;;;16.42;100.00;100751.09;5185642;28;20024;-73
2022/08/21 01:10:34;;;;;;;4.28;1.40;;;;;;;16.54;100.00;100747.75;5183871;28;20202;-73
2022/08/21 01:13:07;;;;;;;4.88;1.40;;;;;;;16.32;100.00;100749.03;5185827;28;20036;-73
2022/08/21 01:15:42;;;;;;;4.78;1.55;;;;;;;16.15;100.00;100749.13;5184148;28;20030;-73
2022/08/21 01:18:14;;;;;;;6.22;1.42;;;;;;;15.92;100.00;100750.41;5183715;28;20132;-73
2022/08/21 01:21:07;;;;;;;7.28;1.90;;;;;;;15.81;100.00;100744.84;5183977;28;20060;-73
2022/08/21 01:23:40;;;;;;;4.18;1.50;;;;;;;15.72;100.00;100742.69;5183542;28;20080;-73
2022/08/21 01:26:12;;;;;;;5.10;1.35;;;;;;;15.63;100.00;100742.34;5184556;28;20418;-72
2022/08/21 01:28:54;;;;;;;8.38;1.60;;;;;;;15.57;100.00;100747.94;5186515;28;20069;-73
2022/08/21 01:31:26;;;;;;;4.10;1.33;;;;;;;15.49;100.00;100748.34;5182531;28;20026;-73
2022/08/21 01:33:56;;;;;;;5.78;1.40;;;;;;;15.37;100.00;100746.34;5182543;28;20033;-73
2022/08/21 01:36:27;;;;;;;4.93;1.83;;;;;;;15.40;100.00;100746.19;5190138;28;20044;-73
2022/08/21 01:38:57;;;;;;;4.32;1.27;;;;;;;15.42;100.00;100747.00;5191961;28;20026;-73
2022/08/21 01:41:27;;;;;;;8.15;1.33;;;;;;;15.46;100.00;100745.88;5190726;28;20030;-73
2022/08/21 01:43:58;;;;;;;3.13;1.25;;;;;;;15.36;100.00;100747.28;5191992;28;20506;-73
2022/08/21 01:46:28;;;;;;;6.28;1.35;;;;;;;15.54;100.00;100740.22;5188917;28;20033;-73
2022/08/21 01:48:58;;;;;;;4.43;1.70;;;;;;;15.71;100.00;100738.38;5180223;28;20030;-73
2022/08/21 01:51:29;;;;;;;4.10;1.25;;;;;;;15.73;100.00;100743.56;5190791;28;20120;-73
2022/08/21 01:53:59;;;;;;;6.28;1.50;;;;;;;15.70;100.00;100738.47;5191902;28;20017;-73
2022/08/21 01:56:36;;;;;;;6.15;1.40;;;;;;;15.57;100.00;100735.59;5190342;28;20105;-73
2022/08/21 01:59:07;;;;;;;3.80;1.35;;;;;;;15.63;100.00;100734.44;5190612;28;20507;-73
2022/08/21 02:01:39;;;;;;;4.38;1.30;;;;;;;15.52;100.00;100740.28;5184638;28;20044;-73
2022/08/21 02:04:11;;;;;;;4.03;1.40;;;;;;;15.28;100.00;100733.66;5184945;28;20033;-73
2022/08/21 02:06:41;;;;;;;4.35;1.30;;;;;;;15.23;100.00;100738.31;5185456;28;20029;-73
2022/08/21 02:09:13;;;;;;;5.65;1.38;;;;;;;15.22;100.00;100741.00;5188718;28;20033;-73
2022/08/21 02:11:44;;;;;;;6.05;1.40;;;;;;;15.22;100.00;100736.59;5188376;28;20419;-73
2022/08/21 02:14:15;;;;;;;4.78;1.27;;;;;;;15.47;100.00;100741.44;5192140;28;20048;-73
2022/08/21 02:16:46;;;;;;;6.30;1.48;;;;;;;15.61;100.00;100745.09;5186744;28;20021;-73
2022/08/21 02:19:16;;;;;;;6.65;1.63;;;;;;;15.52;100.00;100735.00;5179970;28;20487;-73
2022/08/21 02:21:47;;;;;;;4.80;1.30;;;;;;;15.56;100.00;100743.63;5192199;28;20025;-73
2022/08/21 02:24:18;;;;;;;8.50;1.48;;;;;;;15.67;100.00;100739.47;5188515;28;20042;-73
2022/08/21 02:26:48;;;;;;;5.93;1.65;;;;;;;15.50;100.00;100736.88;5192446;28;20033;-73
2022/08/21 02:29:18;;;;;;;9.45;1.50;;;;;;;15.61;100.00;100734.53;5188686;28;20034;-73
2022/08/21 02:31:49;;;;;;;5.65;1.50;;;;;;;15.34;100.00;100735.97;5191595;28;20025;-73
2022/08/21 02:34:19;;;;;;;7.13;1.40;;;;;;;15.57;100.00;100735.59;5184516;28;20030;-73
2022/08/21 02:36:49;;;;;;;4.30;1.23;;;;;;;15.54;100.00;100734.94;5183950;28;20038;-73
2022/08/21 02:39:20;;;;;;;2.38;1.10;;;;;;;15.68;100.00;100733.25;5184192;28;20052;-73
2022/08/21 02:41:50;;;;;;;4.63;1.30;;;;;;;15.57;100.00;100722.44;5187745;28;20119;-73
2022/08/21 02:44:20;;;;;;;5.45;1.40;;;;;;;15.43;100.00;100735.53;5191166;28;20025;-73
2022/08/21 02:46:51;;;;;;;6.07;1.40;;;;;;;15.55;100.00;100734.00;5186506;28;20030;-73
2022/08/21 02:49:21;;;;;;;3.25;1.13;;;;;;;15.44;100.00;100720.56;5180142;28;20034;-72
2022/08/21 02:51:51;;;;;;;5.43;1.20;;;;;;;15.29;100.00;100727.47;5191806;28;20527;-73
2022/08/21 02:54:22;;;;;;;4.35;1.33;;;;;;;15.35;100.00;100727.16;5188514;28;20120;-73
2022/08/21 02:56:52;;;;;;;4.00;1.52;;;;;;;14.98;100.00;100737.84;5191931;28;20498;-73
2022/08/21 02:59:23;;;;;;;5.53;1.50;;;;;;;15.03;100.00;100735.00;5187446;28;20557;-73
2022/08/21 03:01:53;;;;;;;4.70;1.67;;;;;;;15.09;100.00;100738.16;5191822;28;20025;-73
2022/08/21 03:04:24;;;;;;;3.20;1.60;;;;;;;15.06;100.00;100740.09;5188953;28;20029;-73
2022/08/21 03:06:54;;;;;;;3.75;1.40;;;;;;;15.26;100.00;100739.91;5182892;28;20118;-73
2022/08/21 03:09:24;;;;;;;4.50;1.52;;;;;;;15.09;100.00;100732.03;5183712;28;20406;-73
2022/08/21 03:11:55;;;;;;;5.88;1.40;;;;;;;14.99;100.00;100734.28;5187510;28;20033;-73
2022/08/21 03:14:25;;;;;;;4.75;1.55;;;;;;;14.96;100.00;100742.34;5190212;28;20021;-73
2022/08/21 03:16:55;;;;;;;3.92;1.48;;;;;;;14.79;100.00;100733.59;5185161;28;20129;-73
2022/08/21 03:19:26;;;;;;;4.45;1.30;;;;;;;14.74;100.00;100732.13;5183342;28;20033;-73
2022/08/21 03:21:56;;;;;;;4.38;1.48;;;;;;;14.60;100.00;100739.84;5193613;28;20044;-73
2022/08/21 03:24:26;;;;;;;3.33;1.23;;;;;;;14.72;100.00;100729.56;5193514;28;20048;-73
2022/08/21 03:26:57;;;;;;;6.75;1.60;;;;;;;14.59;100.00;100738.16;5194553;28;20052;-73
2022/08/21 03:29:27;;;;;;;2.45;1.25;;;;;;;14.73;100.00;100739.16;5193143;28;20038;-73
2022/08/21 03:31:57;;;;;;;5.45;1.30;;;;;;;14.63;100.00;100737.91;5195284;28;20033;-73
2022/08/21 03:34:28;;;;;;;3.03;1.20;;;;;;;14.60;100.00;100737.22;5193599;28;20030;-73
2022/08/21 03:36:58;;;;;;;3.63;1.20;;;;;;;14.50;100.00;100733.31;5185660;28;20084;-73
2022/08/21 03:39:29;;;;;;;5.68;1.33;;;;;;;14.34;100.00;100732.38;5187367;28;20041;-73
2022/08/21 03:41:59;;;;;;;2.45;1.20;;;;;;;14.57;100.00;100732.97;5192885;28;20105;-73
2022/08/21 03:44:30;;;;;;;4.35;1.23;;;;;;;14.67;100.00;100738.63;5194335;28;20036;-73
2022/08/21 03:47:01;;;;;;;4.78;1.35;;;;;;;14.82;100.00;100726.41;5189854;28;20038;-73
2022/08/21 03:49:31;;;;;;;5.97;1.67;;;;;;;14.80;100.00;100732.66;5184647;28;20057;-73
2022/08/21 03:52:03;;;;;;;3.45;1.20;;;;;;;14.73;100.00;100725.19;5193132;28;20041;-73
2022/08/21 03:54:33;;;;;;;3.58;1.00;;;;;;;14.41;100.00;100728.53;5193163;28;20036;-73
2022/08/21 03:57:04;;;;;;;5.95;1.38;;;;;;;14.07;100.00;100744.19;5192981;28;20034;-73
2022/08/21 03:59:35;;;;;;;3.92;1.52;;;;;;;13.99;100.00;100743.66;5193173;28;20030;-73
2022/08/21 04:02:07;;;;;;;3.40;1.45;;;;;;;14.09;100.00;100742.34;5193122;28;20025;-73
2022/08/21 04:04:37;;;;;;;4.25;1.42;;;;;;;14.05;100.00;100743.41;5193241;28;20030;-73
2022/08/21 04:07:07;;;;;;;3.25;1.27;;;;;;;14.12;100.00;100740.38;5184476;28;20080;-73
2022/08/21 04:09:38;;;;;;;5.03;1.40;;;;;;;14.08;100.00;100741.47;5186641;28;20659;-73
2022/08/21 04:12:09;;;;;;;4.60;1.70;;;;;;;14.03;100.00;100745.22;5193903;28;20029;-73
2022/08/21 04:14:39;;;;;;;3.33;1.50;;;;;;;13.95;100.00;100745.59;5192464;28;20041;-73
2022/08/21 04:17:09;;;;;;;4.95;1.75;;;;;;;13.89;100.00;100755.56;5187552;28;20468;-73
2022/08/21 04:19:39;;;;;;;7.63;1.85;;;;;;;13.92;100.00;100745.72;5185152;28;20429;-73
2022/08/21 04:22:10;;;;;;;3.67;1.60;;;;;;;13.88;100.00;100752.06;5190669;28;20025;-73
2022/08/21 04:24:40;;;;;;;5.05;1.60;;;;;;;13.81;100.00;100752.41;5194218;28;20025;-73
2022/08/21 04:27:11;;;;;;;4.93;1.35;;;;;;;13.91;100.00;100754.53;5191438;28;20113;-73
2022/08/21 04:29:41;;;;;;;3.20;1.33;;;;;;;13.91;100.00;100748.44;5193925;28;20029;-73
2022/08/21 04:32:11;;;;;;;5.80;1.45;;;;;;;13.78;100.00;100752.56;5191567;28;20029;-73
2022/08/21 04:34:42;;;;;;;2.92;1.45;;;;;;;13.78;100.00;100752.56;5194202;28;20022;-73
2022/08/21 04:37:12;;;;;;;2.95;1.40;;;;;;;13.86;100.00;100753.03;5182700;28;20038;-73
2022/08/21 04:39:42;;;;;;;2.17;1.30;;;;;;;13.85;100.00;100754.84;5184922;28;20614;-73
2022/08/21 04:42:14;;;;;;;5.32;1.50;;;;;;;13.86;100.00;100753.03;5193794;28;20045;-73
2022/08/21 04:44:44;;;;;;;3.80;1.52;;;;;;;13.84;100.00;100763.63;5191689;28;20033;-73
2022/08/21 04:47:15;;;;;;;3.72;1.45;;;;;;;13.74;100.00;100764.97;5186766;28;20025;-74
2022/08/21 04:49:46;;;;;;;3.38;1.38;;;;;;;14.04;100.00;100762.69;5184950;28;20030;-73
2022/08/21 04:52:21;;;;;;;3.63;1.60;;;;;;;14.12;100.00;100764.03;5190370;28;20018;-73
2022/08/21 04:54:51;;;;;;;8.15;1.67;;;;;;;14.21;100.00;100768.91;5187406;28;20022;-73
2022/08/21 04:57:22;;;;;;;3.78;1.40;;;;;;;14.21;100.00;100768.06;5193415;28;20553;-73
2022/08/21 04:59:52;;;;;;;7.82;1.70;;;;;;;14.32;100.00;100765.78;5191181;28;20488;-73
2022/08/21 05:02:24;;;;;;;2.58;1.27;;;;;;;14.33;100.00;100768.34;5194063;28;20029;-73
2022/08/21 05:04:55;;;;;;;2.67;1.20;;;;;;;14.26;100.00;100769.53;5190880;28;20048;-73
2022/08/21 05:07:29;;;;;;;2.42;1.30;;;;;;;14.29;100.00;100766.75;5184775;28;20493;-73
2022/08/21 05:10:00;;;;;;;2.85;1.35;;;;;;;14.30;100.00;100767.63;5187118;28;20376;-73
2022/08/21 05:12:31;;;;;;;2.30;1.30;;;;;;;14.70;100.00;100762.13;5193218;28;20024;-74
2022/08/21 05:15:03;;;;;;;4.97;1.33;;;;;;;14.90;100.00;100766.34;5191670;28;20040;-73
2022/08/21 05:17:33;;;;;;;3.30;1.27;;;;;;;15.36;100.00;100771.00;5185293;28;20030;-73
2022/08/21 05:20:04;;;;;;;5.50;1.60;;;;;;;15.75;100.00;100770.69;5185100;28;20563;-73
2022/08/21 05:22:34;;;;;;;3.08;1.15;;;;;;;16.67;100.00;100767.25;5191824;28;20491;-74
2022/08/21 05:25:06;;;;;;;2.83;1.30;;;;;;;16.75;100.00;100764.16;5191458;28;20029;-74
2022/08/21 05:27:38;;;;;;;5.68;1.10;;;;;;;17.52;94.78;100769.19;5192226;28;20120;-74
2022/08/21 05:30:10;;;;;;;2.40;1.00;;;;;;;17.18;100.00;100774.78;5190571;28;20037;-73
2022/08/21 05:32:40;;;;;;;4.60;1.40;;;;;;;17.45;97.30;100781.09;5192617;28;20014;-74
2022/08/21 05:35:11;;;;;;;3.80;1.10;;;;;;;18.50;92.21;100769.13;5190625;28;20033;-74
2022/08/21 05:37:41;;;;;;;4.13;1.20;;;;;;;18.55;90.21;100772.31;5180995;28;20028;-73
2022/08/21 05:40:11;;;;;;;6.78;1.15;;;;;;;19.31;88.81;100772.44;5187814;28;20064;-74
2022/08/21 05:42:42;;;;;;;4.18;1.20;;;;;;;19.20;88.42;100770.53;5189766;28;20072;-74
2022/08/21 05:45:12;;;;;;;3.97;1.30;;;;;;;19.23;91.48;100772.97;5192922;28;20029;-74
2022/08/21 05:47:42;;;;;;;2.65;1.10;;;;;;;21.12;82.74;100767.13;5183476;28;20423;-73
2022/08/21 05:50:13;;;;;;;4.53;1.02;;;;;;;20.77;81.52;100767.09;5185355;28;20060;-73
2022/08/21 05:52:43;;;;;;;4.60;1.17;;;;;;;20.75;82.83;100773.47;5192438;28;20108;-74
2022/08/21 05:55:14;;;;;;;4.65;1.30;;;;;;;20.68;82.74;100773.09;5190201;28;20128;-74
2022/08/21 05:57:44;;;;;;;5.28;1.33;;;;;;;20.24;84.68;100779.94;5191968;28;20029;-74
2022/08/21 06:00:16;;;;;;;4.70;1.30;;;;;;;19.60;85.27;100774.78;5186285;28;20540;-73
2022/08/21 06:02:46;;;;;;;7.88;1.63;;;;;;;18.98;89.28;100778.19;5187167;28;20030;-74
2022/08/21 06:05:17;;;;;;;4.60;1.60;;;;;;;19.26;87.36;100775.41;5192535;28;20025;-74
2022/08/21 06:07:48;;;;;;;2.95;1.02;;;;;;;19.01;90.09;100772.69;5188426;28;20723;-73
2022/08/21 06:10:19;;;;;;;5.78;1.40;;;;;;;18.73;91.58;100775.47;5192683;28;20060;-73
2022/08/21 06:12:53;;;;;;;3.33;1.13;;;;;;;18.82;91.98;100772.22;5188090;28;20021;-73
2022/08/21 06:15:24;;;;;;;5.35;1.83;;;;;;;18.90;89.93;100764.59;5185982;28;20030;-73
2022/08/21 06:17:54;;;;;;;4.32;1.30;;;;;;;18.61;94.18;100772.78;5183839;28;20121;-73
2022/08/21 06:20:25;;;;;;;6.63;1.45;;;;;;;19.08;90.06;100767.81;5184055;28;20038;-73
2022/08/21 06:22:55;;;;;;;3.42;1.10;;;;;;;18.80;92.37;100766.13;5189806;28;20037;-73
2022/08/21 06:25:26;;;;;;;5.20;1.50;;;;;;;19.16;92.65;100760.19;5191806;28;20380;-73
2022/08/21 06:28:05;;;;;;;4.85;1.35;;;;;;;18.82;96.33;100766.91;5189330;28;20447;-73
2022/08/21 06:30:38;;;;;;;3.90;1.40;;;;;;;19.31;93.65;100762.66;5190492;28;20120;-73
2022/08/21 06:33:08;;;;;;;2.70;1.17;;;;;;;19.07;91.25;100753.72;5191333;28;20049;-73
2022/08/21 06:35:38;;;;;;;3.88;1.40;;;;;;;20.54;83.12;100750.31;5190115;28;20564;-73
2022/08/21 06:38:09;;;;;;;6.47;1.48;;;;;;;21.17;80.71;100743.69;5190795;28;20036;-74
2022/08/21 06:40:39;;;;;;;6.45;1.55;;;;;;;21.48;80.20;100751.00;5206171;23;20048;-81
2022/08/21 06:43:13;;;;;;;4.07;1.30;;;;;;;21.95;80.23;100749.00;5205874;28;20048;-81
2022/08/21 06:45:44;;;;;;;4.40;1.15;;;;;;;23.28;76.09;100745.84;5187331;28;20125;-78
2022/08/21 06:48:14;;;;;;;3.22;1.10;;;;;;;24.60;71.52;100739.41;5181616;28;21094;-79
2022/08/21 06:50:45;;;;;;;2.83;1.10;;;;;;;25.67;70.18;100727.47;5169633;28;20026;-79
2022/08/21 06:53:19;;;;;;;8.05;1.50;;;;;;;22.68;79.66;100748.28;5169373;28;20022;-77
2022/08/21 06:55:49;;;;;;;3.75;1.13;;;;;;;23.45;76.96;100745.25;5168373;28;20420;-77
2022/08/21 06:58:19;;;;;;;7.20;1.35;;;;;;;22.31;82.57;100753.19;5163421;28;20188;-79
2022/08/21 07:00:51;;;;;;;3.78;1.50;;;;;;;21.89;84.17;100754.00;5159134;28;20018;-78
2022/08/21 07:03:26;;;;;;;5.30;1.45;;;;;;;21.62;82.75;100745.47;5146501;28;20030;-75
2022/08/21 07:05:58;;;;;;;6.95;1.35;;;;;;;21.37;82.65;100741.22;5165280;28;20030;-79
2022/08/21 07:08:28;;;;;;;4.15;1.20;;;;;;;21.02;87.07;100745.72;5170382;28;20545;-78
2022/08/21 07:11:01;;;;;;;3.63;1.27;;;;;;;20.94;88.24;100736.63;5168996;28;20057;-77
2022/08/21 07:13:31;;;;;;;3.50;1.20;;;;;;;21.14;86.66;100743.94;5168962;28;20508;-79
2022/08/21 07:16:02;;;;;;;5.57;1.40;;;;;;;20.99;90.68;100735.31;5169250;28;20030;-79
2022/08/21 07:18:32;;;;;;;3.50;1.30;;;;;;;21.08;87.85;100733.78;5165480;28;20026;-78
2022/08/21 07:21:05;;;;;;;5.05;1.33;;;;;;;21.49;84.12;100726.09;5169606;28;20507;-78
2022/08/21 07:23:46;;;;;;;3.00;1.40;;;;;;;21.85;83.75;100725.91;5169458;28;20105;-77
2022/08/21 07:26:20;;;;;;;4.78;1.55;;;;;;;21.94;81.94;100730.50;5169427;28;20053;-78
2022/08/21 07:28:50;;;;;;;3.35;1.10;;;;;;;21.72;82.99;100730.53;5163411;28;20026;-79
2022/08/21 07:31:23;;;;;;;4.72;1.30;;;;;;;21.53;85.68;100731.06;5172605;28;20510;-79
2022/08/21 07:33:54;;;;;;;4.55;1.30;;;;;;;21.67;86.02;100722.03;5166685;28;20377;-79
2022/08/21 07:36:25;;;;;;;6.00;1.30;;;;;;;21.45;87.57;100727.31;5170657;28;20030;-77
2022/08/21 07:38:55;;;;;;;3.08;1.38;;;;;;;21.31;88.71;100724.88;5167464;28;20034;-80
2022/08/21 07:41:28;;;;;;;3.88;1.30;;;;;;;21.47;85.25;100720.06;5170957;28;20117;-78
2022/08/21 07:43:59;;;;;;;3.88;1.25;;;;;;;21.21;87.76;100711.44;5168602;28;20038;-78
2022/08/21 07:46:30;;;;;;;3.55;1.58;;;;;;;21.55;87.38;100717.66;5167494;28;20030;-77
2022/08/21 07:49:00;;;;;;;3.65;1.40;;;;;;;21.67;87.33;100704.28;5161246;28;20448;-79
2022/08/21 07:51:33;;;;;;;3.97;1.30;;;;;;;21.49;88.51;100702.16;5168761;28;20026;-79
2022/08/21 07:54:03;;;;;;;3.55;1.27;;;;;;;21.62;89.89;100713.53;5169512;28;20030;-79
2022/08/21 07:56:33;;;;;;;3.88;1.30;;;;;;;22.37;87.56;100702.09;5169033;28;20542;-77
2022/08/21 07:59:04;;;;;;;3.22;1.33;;;;;;;23.54;80.86;100699.06;5167452;28;20030;-79
2022/08/21 08:01:34;;;;;;;5.20;1.30;;;;;;;25.18;75.13;100693.75;5169060;28;20053;-80
2022/08/21 08:04:04;;;;;;;3.70;1.10;;;;;;;24.22;75.17;100696.53;5169098;28;20033;-79
2022/08/21 08:06:35;;;;;;;4.22;1.20;;;;;;;24.71;74.34;100688.44;5172808;28;20068;-78
2022/08/21 08:09:05;;;;;;;3.85;1.17;;;;;;;26.80;69.55;100688.44;5174033;28;20410;-79
2022/08/21 08:11:38;;;;;;;4.07;1.00;;;;;;;26.97;67.05;100685.72;5173763;28;20483;-80
2022/08/21 08:14:09;;;;;;;4.78;1.10;;;;;;;28.85;61.08;100679.84;5164232;28;20567;-79
2022/08/21 08:16:39;;;;;;;4.32;1.35;;;;;;;27.99;63.68;100688.38;5167557;28;20038;-81
2022/08/21 08:19:10;;;;;;;4.93;0.95;;;;;;;27.43;63.51;100690.78;5166537;28;20034;-81
2022/08/21 08:21:40;;;;;;;5.28;1.40;;;;;;;28.71;59.17;100677.84;5170362;28;20034;-79
2022/08/21 08:24:11;;;;;;;5.83;1.10;;;;;;;29.85;58.24;100673.81;5173022;28;20061;-79
2022/08/21 08:26:41;;;;;;;3.83;1.27;;;;;;;29.92;57.20;100671.25;5175027;28;20356;-81
2022/08/21 08:29:12;;;;;;;3.50;0.97;;;;;;;29.26;59.03;100679.66;5173515;28;20419;-79
2022/08/21 08:31:42;;;;;;;3.22;1.08;;;;;;;27.46;62.98;100682.41;5174186;28;20275;-80
2022/08/21 08:34:12;;;;;;;8.60;1.00;;;;;;;27.98;62.35;100678.63;5172994;28;20018;-79
2022/08/21 08:36:43;;;;;;;3.00;0.88;;;;;;;27.33;63.19;100679.31;5175592;28;20348;-80
2022/08/21 08:39:13;;;;;;;2.67;1.07;;;;;;;29.75;58.64;100677.72;5172526;28;20507;-81
2022/08/21 08:41:47;;;;;;;3.92;1.08;;;;;;;28.74;59.59;100674.81;5174643;28;20276;-80
2022/08/21 08:44:18;;;;;;;3.45;1.00;;;;;;;29.80;56.39;100675.34;5176113;28;20022;-80
2022/08/21 08:46:51;;;;;;;2.13;0.90;;;;;;;29.74;55.84;100673.34;5172729;28;20104;-82
2022/08/21 08:49:24;;;;;;;2.15;1.05;;;;;;;31.36;55.42;100671.91;5169708;28;20076;-80
2022/08/21 08:52:04;;;;;;;3.67;1.48;;;;;;;30.88;55.00;100676.91;5172991;28;20677;-79
2022/08/21 08:54:42;;;;;;;4.25;1.40;;;;;;;33.21;52.57;100674.59;5174661;28;20030;-80
2022/08/21 08:57:18;;;;;;;4.00;1.50;;;;;;;30.98;54.26;100678.34;5168613;28;20399;-79
2022/08/21 08:59:55;;;;;;;3.33;1.40;;;;;;;29.94;56.05;100677.31;5166751;28;20503;-78
2022/08/21 09:02:27;;;;;;;4.75;1.10;;;;;;;31.07;56.10;100665.59;5166508;28;20026;-80
2022/08/21 09:04:59;;;;;;;3.20;1.23;;;;;;;30.35;56.28;100682.34;5172265;28;20120;-78
2022/08/21 09:07:52;;;;;;;3.72;1.20;;;;;;;29.06;59.56;100682.91;5168697;28;20030;-79
2022/08/21 09:10:34;;;;;;;5.20;1.60;;;;;;;28.31;61.72;100671.56;5164422;28;20029;-77
2022/08/21 09:13:16;;;;;;;3.72;1.70;;;;;;;27.53;65.19;100680.78;5170325;28;20026;-79
2022/08/21 09:15:49;;;;;;;4.63;1.50;;;;;;;27.62;64.10;100673.59;5169721;28;20056;-78
2022/08/21 09:18:56;;;;;;;4.43;1.40;;;;;;;26.51;66.52;100684.31;5160229;28;20489;-79
2022/08/21 09:21:38;;;;;;;5.80;1.55;;;;;;;26.46;68.82;100678.50;5170466;28;20029;-78
2022/08/21 09:24:36;;;;;;;4.90;1.35;;;;;;;26.37;69.03;100666.03;5164204;28;20026;-77
2022/08/21 09:27:09;;;;;;;4.82;1.58;;;;;;;27.12;66.15;100664.56;5168460;28;20029;-79
2022/08/21 09:29:44;;;;;;;4.68;1.33;;;;;;;27.60;67.23;100663.00;5163290;28;20108;-78
2022/08/21 09:32:26;;;;;;;7.73;2.20;;;;;;;26.94;66.99;100658.38;5171971;28;20022;-79
2022/08/21 09:35:19;;;;;;;6.47;1.75;;;;;;;27.68;67.81;100665.75;5166036;28;20034;-78
2022/08/21 09:38:02;;;;;;;6.38;1.73;;;;;;;26.26;70.79;100672.47;5164179;28;20092;-78
2022/08/21 09:40:40;;;;;;;6.97;2.05;;;;;;;25.25;71.70;100667.28;5165975;28;20149;-78
2022/08/21 09:43:10;;;;;;;8.07;2.00;;;;;;;26.16;67.13;100671.66;5160205;28;20034;-78
2022/08/21 09:45:43;;;;;;;9.10;2.17;;;;;;;26.59;66.02;100660.25;5165901;28;20032;-78
2022/08/21 09:48:19;;;;;;;8.15;1.83;;;;;;;25.50;69.64;100674.69;5169792;28;20280;-78
2022/08/21 09:50:51;;;;;;;6.38;1.85;;;;;;;25.08;70.96;100670.66;5170962;28;20057;-78
2022/08/21 09:53:26;;;;;;;7.85;1.92;;;;;;;25.20;70.53;100664.19;5168948;28;20026;-78
2022/08/21 09:58:50;;;;;;;8.70;1.98;;;;;;;25.84;68.96;100659.72;5173324;28;19937;-79
2022/08/21 10:01:24;;;;;;;6.38;1.83;;;;;;;25.55;68.70;100669.72;5168780;28;20034;-78
2022/08/21 10:04:10;;;;;;;6.78;2.00;;;;;;;24.99;67.52;100664.34;5169827;28;20074;-78
2022/08/21 10:06:41;;;;;;;7.50;1.65;;;;;;;24.64;69.02;100668.63;5165421;28;20026;-78
2022/08/21 10:09:18;;;;;;;9.48;2.10;;;;;;;25.30;68.48;100657.00;5170432;28;20467;-78
2022/08/21 10:12:16;;;;;;;6.63;1.83;;;;;;;25.84;68.27;100651.69;5168421;28;20026;-79
2022/08/21 10:15:07;;;;;;;8.70;1.98;;;;;;;25.88;65.16;100653.09;5168585;28;20049;-79
2022/08/21 10:17:52;;;;;;;7.65;1.90;;;;;;;25.93;65.31;100656.16;5166357;28;20551;-79
2022/08/21 10:20:29;;;;;;;7.78;2.10;;;;;;;26.05;66.35;100652.28;5170587;28;20115;-77
2022/08/21 10:23:05;;;;;;;7.85;1.90;;;;;;;26.43;64.41;100649.31;5170191;28;20027;-78
2022/08/21 10:25:54;;;;;;;6.40;1.70;;;;;;;26.05;64.73;100646.94;5163316;28;20045;-79
2022/08/21 10:28:37;;;;;;;9.90;2.20;;;;;;;25.58;66.13;100650.66;5161182;28;20070;-79
2022/08/21 10:31:23;;;;;;;8.60;1.98;;;;;;;25.74;65.21;100646.38;5170039;28;20049;-78
2022/08/21 10:34:24;;;;;;;7.18;1.90;;;;;;;26.20;63.64;100645.41;5165650;28;20042;-77
2022/08/21 10:37:16;;;;;;;8.55;2.00;;;;;;;26.32;63.87;100641.53;5163234;28;20034;-79
2022/08/21 10:39:52;;;;;;;7.60;1.98;;;;;;;26.20;64.26;100640.88;5165110;28;20030;-78
2022/08/21 10:42:55;;;;;;;9.18;2.25;;;;;;;25.90;62.64;100643.94;5153336;28;20078;-79
2022/08/21 10:45:43;;;;;;;7.85;2.10;;;;;;;26.30;63.46;100632.78;5173270;28;20030;-79
2022/08/21 10:48:46;;;;;;;7.00;2.05;;;;;;;26.25;62.78;100635.06;5155602;28;20029;-78
2022/08/21 10:51:28;;;;;;;7.78;1.90;;;;;;;26.31;61.97;100637.16;5164266;28;20037;-78
2022/08/21 10:54:30;;;;;;;8.65;1.80;;;;;;;25.84;62.22;100635.63;5166908;28;20057;-79
2022/08/21 10:57:12;;;;;;;6.43;1.65;;;;;;;26.10;63.47;100626.72;5165312;28;20042;-79
2022/08/21 10:59:55;;;;;;;5.97;1.95;;;;;;;26.23;63.91;100634.38;5173349;28;20582;-80
2022/08/21 11:02:30;;;;;;;9.15;2.35;;;;;;;26.38;60.83;100628.31;5169400;28;20504;-78
2022/08/21 11:05:18;;;;;;;8.63;2.00;;;;;;;26.32;59.57;100622.75;5168891;28;20437;-79
2022/08/21 11:08:22;;;;;;;5.57;1.73;;;;;;;25.88;59.95;100621.81;5175230;28;20044;-79
2022/08/21 11:11:08;;;;;;;5.75;1.85;;;;;;;26.16;62.28;100619.94;5172868;28;20042;-78
2022/08/21 11:14:21;;;;;;;7.32;2.03;;;;;;;25.89;58.10;100618.13;5163711;28;20114;-79
2022/08/21 11:17:00;;;;;;;7.25;2.22;;;;;;;25.78;61.43;100629.00;5158111;28;20033;-78
2022/08/21 11:19:38;;;;;;;9.98;2.28;;;;;;;25.53;60.22;100624.38;5149920;28;20130;-78
2022/08/21 11:22:28;;;;;;;5.03;1.90;;;;;;;25.32;61.39;100626.41;5169608;28;20549;-78
2022/08/21 11:25:22;;;;;;;5.40;1.90;;;;;;;25.47;62.22;100629.47;5171834;28;20048;-78
2022/08/21 11:28:21;;;;;;;7.15;2.22;;;;;;;25.59;62.44;100620.22;5172065;28;20036;-79
2022/08/21 11:30:51;;;;;;;5.90;1.90;;;;;;;25.42;61.60;100612.97;5168258;28;20037;-78
2022/08/21 11:33:45;;;;;;;6.30;1.90;;;;;;;25.22;62.17;100620.25;5166033;28;20083;-80
2022/08/21 11:36:54;;;;;;;5.13;1.60;;;;;;;25.43;63.43;100612.00;5168342;28;20284;-78
2022/08/21 11:39:46;;;;;;;5.00;1.52;;;;;;;25.56;63.44;100612.50;5085762;29;20031;-78
2022/08/21 11:42:27;;;;;;;6.45;1.83;;;;;;;25.81;61.78;100615.31;5088994;29;20554;-79
2022/08/21 11:45:16;;;;;;;4.60;1.50;;;;;;;26.12;60.88;100613.16;5147442;28;20042;-79
2022/08/21 11:47:55;;;;;;;7.68;1.67;;;;;;;26.04;62.34;100613.09;5163487;28;20026;-79
2022/08/21 11:50:29;;;;;;;5.47;2.05;;;;;;;26.00;62.16;100603.69;5166242;28;20102;-78
2022/08/21 11:53:14;;;;;;;6.78;1.85;;;;;;;26.06;60.98;100605.75;5169662;28;20312;-78
2022/08/21 11:56:18;;;;;;;6.35;1.70;;;;;;;25.88;62.52;100610.25;5171935;28;20073;-78
2022/08/21 11:58:56;;;;;;;4.72;1.50;;;;;;;25.36;62.45;100610.91;5169889;28;20049;-79